createdAt,value
2018-03-22T00:00:43.876Z,5.83
2018-03-22T00:03:18.780Z,5.23
2018-03-22T00:05:53.385Z,6.03
2018-03-22T00:08:27.626Z,5.30
2018-03-22T00:11:00.637Z,5.40
2018-03-22T00:16:14.605Z,5.20
2018-03-22T00:18:47.452Z,5.47
2018-03-22T00:21:24.124Z,5.10
2018-03-22T00:23:57.274Z,5.17
2018-03-22T00:26:28.704Z,5.93
2018-03-22T00:29:01.482Z,5.37
2018-03-22T00:31:32.275Z,5.73
2018-03-22T00:34:02.025Z,4.57
2018-03-22T00:36:31.574Z,5.20
2018-03-22T00:39:01.902Z,5.13
2018-03-22T00:41:31.400Z,6.00
2018-03-22T00:44:05.064Z,5.47
2018-03-22T00:46:36.575Z,5.90
2018-03-22T00:49:06.684Z,5.53
2018-03-22T00:51:36.184Z,5.37
2018-03-22T00:54:05.677Z,5.50
2018-03-22T00:56:35.176Z,5.13
2018-03-22T00:59:04.700Z,5.60
2018-03-22T01:01:35.740Z,4.83
2018-03-22T01:04:11.701Z,5.10
2018-03-22T01:06:47.292Z,4.90
2018-03-22T01:09:20.230Z,5.20
2018-03-22T01:11:50.494Z,5.30
2018-03-22T01:14:20.062Z,5.43
2018-03-22T01:16:50.354Z,5.23
2018-03-22T01:19:22.749Z,5.00
2018-03-22T01:21:53.494Z,5.17
2018-03-22T01:24:24.292Z,5.20
2018-03-22T01:26:54.839Z,5.00
2018-03-22T01:29:27.919Z,4.87
2018-03-22T01:32:00.738Z,5.57
2018-03-22T01:34:36.298Z,5.80
2018-03-22T01:37:07.306Z,4.87
2018-03-22T01:39:37.770Z,5.83
2018-03-22T01:42:07.914Z,4.80
2018-03-22T01:44:59.846Z,5.50
2018-03-22T01:47:31.773Z,5.47
2018-03-22T01:50:05.964Z,5.60
2018-03-22T01:52:51.679Z,4.90
2018-03-22T01:55:21.204Z,5.17
2018-03-22T01:57:50.725Z,5.40
2018-03-22T02:00:22.093Z,5.60
2018-03-22T02:02:56.657Z,5.07
2018-03-22T02:05:28.258Z,5.80
2018-03-22T02:08:00.104Z,5.67
2018-03-22T02:10:29.632Z,5.20
2018-03-22T02:13:00.825Z,5.17
2018-03-22T02:15:30.330Z,5.57
2018-03-22T02:17:59.843Z,5.53
2018-03-22T02:20:29.667Z,5.67
2018-03-22T02:23:01.095Z,5.80
2018-03-22T02:25:34.187Z,5.90
2018-03-22T02:28:05.023Z,5.67
2018-03-22T02:30:38.742Z,6.03
2018-03-22T02:33:09.985Z,5.90
2018-03-22T02:35:40.033Z,5.30
2018-03-22T02:38:10.308Z,6.03
2018-03-22T02:40:40.304Z,6.27
2018-03-22T02:43:10.286Z,5.70
2018-03-22T02:45:44.188Z,6.00
2018-03-22T02:48:16.625Z,6.10
2018-03-22T02:50:50.848Z,5.90
2018-03-22T02:53:27.581Z,5.70
2018-03-22T02:56:02.166Z,5.33
2018-03-22T02:58:34.683Z,6.87
2018-03-22T03:01:13.544Z,5.80
2018-03-22T03:03:46.043Z,5.80
2018-03-22T03:06:20.804Z,6.27
2018-03-22T03:08:51.888Z,6.03
2018-03-22T03:11:22.499Z,5.87
2018-03-22T03:13:51.989Z,5.27
2018-03-22T03:16:21.543Z,5.90
2018-03-22T03:18:51.047Z,5.87
2018-03-22T03:21:20.953Z,5.87
2018-03-22T03:23:52.293Z,5.97
2018-03-22T03:26:26.847Z,6.03
2018-03-22T03:29:02.406Z,5.30
2018-03-22T03:31:38.044Z,5.80
2018-03-22T03:34:10.449Z,5.80
2018-03-22T03:36:46.256Z,5.40
2018-03-22T03:39:21.805Z,5.33
2018-03-22T03:41:53.703Z,5.60
2018-03-22T03:44:31.166Z,5.40
2018-03-22T03:47:05.636Z,5.83
2018-03-22T03:49:37.976Z,5.30
2018-03-22T03:52:17.773Z,5.80
2018-03-22T03:54:47.278Z,5.30
2018-03-22T03:57:23.720Z,6.37
2018-03-22T03:59:58.180Z,5.93
2018-03-22T04:02:28.445Z,5.93
2018-03-22T04:04:59.307Z,5.70
2018-03-22T04:07:29.086Z,5.50
2018-03-22T04:09:59.542Z,6.20
2018-03-22T04:12:29.121Z,6.03
2018-03-22T04:14:59.259Z,5.47
2018-03-22T04:17:32.814Z,5.63
2018-03-22T04:20:07.499Z,6.27
2018-03-22T04:22:38.039Z,5.57
2018-03-22T04:25:07.568Z,5.73
2018-03-22T04:27:37.062Z,5.60
2018-03-22T04:30:08.410Z,6.73
2018-03-22T04:32:38.939Z,6.37
2018-03-22T04:35:08.667Z,7.27
2018-03-22T04:37:42.509Z,6.60
2018-03-22T04:40:15.992Z,5.90
2018-03-22T04:42:49.950Z,6.27
2018-03-22T04:45:25.949Z,6.00
2018-03-22T04:47:59.363Z,5.70
2018-03-22T04:50:38.008Z,5.53
2018-03-22T04:53:09.492Z,6.13
2018-03-22T04:55:47.313Z,6.20
2018-03-22T04:58:19.768Z,6.67
2018-03-22T05:00:54.682Z,6.10
2018-03-22T05:03:29.242Z,6.73
2018-03-22T05:06:03.259Z,5.93
2018-03-22T05:08:36.628Z,6.80
2018-03-22T05:11:08.273Z,6.10
2018-03-22T05:13:37.863Z,6.67
2018-03-22T05:16:10.071Z,6.53
2018-03-22T05:18:39.752Z,6.40
2018-03-22T05:21:09.661Z,6.63
2018-03-22T05:23:40.628Z,8.03
2018-03-22T05:26:12.530Z,6.70
2018-03-22T05:28:48.051Z,7.10
2018-03-22T05:31:20.201Z,6.80
2018-03-22T05:33:57.179Z,6.90
2018-03-22T05:36:30.149Z,6.50
2018-03-22T05:39:06.753Z,7.23
2018-03-22T05:41:41.534Z,6.83
2018-03-22T05:44:14.460Z,5.70
2018-03-22T05:46:46.158Z,5.93
2018-03-22T05:49:16.350Z,6.43
2018-03-22T05:51:46.078Z,6.63
2018-03-22T05:54:15.582Z,6.70
2018-03-22T05:56:45.086Z,6.67
2018-03-22T05:59:14.843Z,6.70
2018-03-22T06:01:45.290Z,7.00
2018-03-22T06:04:15.152Z,7.27
2018-03-22T06:06:45.108Z,6.17
2018-03-22T06:09:14.747Z,6.80
2018-03-22T06:11:45.412Z,6.67
2018-03-22T06:14:14.930Z,6.67
2018-03-22T06:16:49.470Z,6.83
2018-03-22T06:19:40.594Z,6.93
2018-03-22T06:22:10.887Z,6.57
2018-03-22T06:24:41.002Z,6.70
2018-03-22T06:27:10.511Z,6.27
2018-03-22T06:29:43.666Z,6.60
2018-03-22T06:32:14.932Z,7.27
2018-03-22T06:34:52.711Z,7.87
2018-03-22T06:37:29.450Z,7.70
2018-03-22T06:40:03.864Z,7.63
2018-03-22T06:42:34.746Z,7.40
2018-03-22T06:45:07.692Z,7.67
2018-03-22T06:47:37.192Z,7.50
2018-03-22T06:50:07.362Z,7.57
2018-03-22T06:52:36.895Z,7.83
2018-03-22T06:55:10.997Z,7.23
2018-03-22T06:57:40.983Z,7.70
2018-03-22T07:00:10.500Z,7.70
2018-03-22T07:02:47.083Z,7.77
2018-03-22T07:05:21.086Z,8.00
2018-03-22T07:07:53.953Z,7.60
2018-03-22T07:10:28.776Z,8.37
2018-03-22T07:13:13.243Z,8.90
2018-03-22T07:15:42.751Z,8.43
2018-03-22T07:18:25.583Z,7.67
2018-03-22T07:20:56.716Z,7.70
2018-03-22T07:23:27.034Z,7.90
2018-03-22T07:25:57.625Z,8.97
2018-03-22T07:28:32.261Z,8.10
2018-03-22T07:31:06.421Z,8.33
2018-03-22T07:33:56.959Z,8.23
2018-03-22T07:36:27.934Z,7.83
2018-03-22T07:38:57.475Z,8.00
2018-03-22T07:41:27.048Z,7.60
2018-03-22T07:44:06.222Z,8.50
2018-03-22T07:46:36.024Z,8.53
2018-03-22T07:49:08.822Z,8.77
2018-03-22T07:51:40.031Z,8.27
2018-03-22T07:54:11.541Z,8.10
2018-03-22T07:56:45.240Z,8.60
2018-03-22T07:59:15.780Z,9.27
2018-03-22T08:01:45.553Z,8.87
2018-03-22T08:04:15.266Z,8.37
2018-03-22T08:06:45.586Z,8.13
2018-03-22T08:09:16.344Z,8.37
2018-03-22T08:11:48.979Z,7.87
2018-03-22T08:14:25.787Z,8.20
2018-03-22T08:16:56.943Z,8.33
2018-03-22T08:19:50.460Z,8.07
2018-03-22T08:22:21.100Z,7.30
2018-03-22T08:24:50.638Z,7.00
2018-03-22T08:27:20.202Z,7.40
2018-03-22T08:29:50.885Z,6.90
2018-03-22T08:32:29.353Z,6.07
2018-03-22T08:35:21.116Z,6.70
2018-03-22T08:37:50.612Z,6.60
2018-03-22T08:40:20.116Z,5.93
2018-03-22T08:42:50.300Z,6.60
2018-03-22T08:45:23.174Z,6.47
2018-03-22T08:47:58.123Z,6.50
2018-03-22T08:50:31.324Z,7.13
2018-03-22T08:53:08.031Z,6.20
2018-03-22T08:55:40.086Z,6.83
2018-03-22T08:58:15.679Z,5.87
2018-03-22T09:00:48.825Z,7.10
2018-03-22T09:03:26.624Z,6.47
2018-03-22T09:05:59.407Z,6.20
2018-03-22T09:08:33.649Z,6.17
2018-03-22T09:11:10.688Z,6.13
2018-03-22T09:13:46.088Z,5.60
2018-03-22T09:16:22.080Z,4.93
2018-03-22T09:18:53.631Z,5.33
2018-03-22T09:21:23.334Z,5.60
2018-03-22T09:23:53.153Z,5.13
2018-03-22T09:26:22.963Z,4.97
2018-03-22T09:28:52.453Z,4.43
2018-03-22T09:31:21.978Z,4.40
2018-03-22T09:33:52.487Z,4.23
2018-03-22T09:36:28.902Z,5.07
2018-03-22T09:39:03.878Z,4.00
2018-03-22T09:41:39.052Z,4.27
2018-03-22T09:44:12.651Z,5.10
2018-03-22T09:46:46.543Z,4.90
2018-03-22T09:49:21.424Z,5.03
2018-03-22T09:51:54.143Z,4.20
2018-03-22T09:54:30.963Z,4.70
2018-03-22T09:57:07.778Z,5.40
2018-03-22T09:59:40.780Z,4.47
2018-03-22T10:02:12.958Z,4.90
2018-03-22T10:04:51.450Z,4.20
2018-03-22T10:07:27.876Z,4.10
2018-03-22T10:10:02.274Z,4.37
2018-03-22T10:12:36.608Z,4.17
2018-03-22T10:15:12.659Z,5.00
2018-03-22T10:17:46.841Z,4.87
2018-03-22T10:20:37.875Z,4.63
2018-03-22T10:23:08.384Z,4.70
2018-03-22T10:25:37.878Z,5.47
2018-03-22T10:28:07.376Z,5.03
2018-03-22T10:30:39.869Z,4.33
2018-03-22T10:33:16.054Z,5.20
2018-03-22T10:35:51.642Z,5.23
2018-03-22T10:38:21.910Z,5.37
2018-03-22T10:40:52.761Z,4.33
2018-03-22T10:43:25.301Z,5.40
2018-03-22T10:45:54.938Z,4.93
2018-03-22T10:48:26.635Z,5.10
2018-03-22T10:50:56.399Z,5.27
2018-03-22T10:53:26.269Z,4.80
2018-03-22T10:55:58.339Z,7.23
2018-03-22T10:58:33.315Z,6.90
2018-03-22T11:01:11.099Z,6.97
2018-03-22T11:03:48.371Z,7.10
2018-03-22T11:06:17.883Z,7.27
2018-03-22T11:08:48.363Z,7.10
2018-03-22T11:11:18.964Z,7.57
2018-03-22T11:13:49.459Z,6.90
2018-03-22T11:16:20.022Z,6.47
2018-03-22T11:18:49.510Z,7.00
2018-03-22T11:21:19.045Z,6.17
2018-03-22T11:23:49.787Z,6.27
2018-03-22T11:26:24.243Z,6.47
2018-03-22T11:29:00.397Z,5.77
2018-03-22T11:31:31.651Z,5.17
2018-03-22T11:34:07.559Z,5.47
2018-03-22T11:36:39.046Z,5.03
2018-03-22T11:39:08.938Z,5.40
2018-03-22T11:41:38.445Z,5.53
2018-03-22T11:44:08.203Z,4.70
2018-03-22T11:46:37.728Z,4.60
2018-03-22T11:49:07.862Z,4.87
2018-03-22T11:51:37.450Z,4.43
2018-03-22T11:54:06.941Z,4.00
2018-03-22T11:56:37.370Z,4.47
2018-03-22T11:59:09.094Z,4.07
2018-03-22T12:01:38.587Z,3.70
2018-03-22T12:04:08.866Z,4.00
2018-03-22T12:07:15.973Z,4.00
2018-03-22T12:09:47.207Z,4.20
2018-03-22T12:12:20.170Z,4.40
2018-03-22T12:14:57.091Z,4.27
2018-03-22T12:17:33.291Z,3.90
2018-03-22T12:20:07.538Z,3.67
2018-03-22T12:22:44.788Z,4.17
2018-03-22T12:25:14.559Z,3.67
2018-03-22T12:27:45.829Z,3.73
2018-03-22T12:33:02.284Z,3.90
2018-03-22T12:35:34.555Z,3.77
2018-03-22T12:38:10.344Z,3.37
2018-03-22T12:40:42.014Z,3.40
2018-03-22T12:43:11.593Z,3.77
2018-03-22T12:45:42.384Z,3.37
2018-03-22T12:48:12.299Z,3.20
2018-03-22T12:50:42.651Z,3.43
2018-03-22T12:53:12.875Z,3.40
2018-03-22T12:55:43.476Z,3.53
2018-03-22T12:58:18.978Z,3.53
2018-03-22T13:00:48.482Z,3.60
2018-03-22T13:03:17.992Z,3.97
2018-03-22T13:05:47.479Z,3.67
2018-03-22T13:08:18.360Z,3.67
2018-03-22T13:10:48.663Z,3.70
2018-03-22T13:13:19.137Z,3.97
2018-03-22T13:15:52.502Z,3.53
2018-03-22T13:18:23.112Z,3.70
2018-03-22T13:20:53.121Z,3.87
2018-03-22T13:23:22.618Z,3.40
2018-03-22T13:25:52.110Z,4.00
2018-03-22T13:28:21.620Z,3.73
2018-03-22T13:30:52.787Z,4.30
2018-03-22T13:33:28.292Z,3.50
2018-03-22T13:36:03.319Z,3.70
2018-03-22T13:38:33.934Z,4.10
2018-03-22T13:41:03.434Z,3.90
2018-03-22T13:43:33.278Z,3.87
2018-03-22T13:46:02.770Z,3.90
2018-03-22T13:48:32.277Z,3.80
2018-03-22T13:51:01.768Z,4.03
2018-03-22T13:53:34.123Z,3.73
2018-03-22T13:56:07.916Z,3.90
2018-03-22T13:58:37.426Z,3.53
2018-03-22T14:01:08.286Z,3.83
2018-03-22T14:03:37.835Z,3.67
2018-03-22T14:06:07.320Z,3.87
2018-03-22T14:08:37.383Z,3.80
2018-03-22T14:11:08.648Z,3.77
2018-03-22T14:13:42.783Z,3.80
2018-03-22T14:16:13.373Z,3.50
2018-03-22T14:18:45.216Z,3.73
2018-03-22T14:21:14.700Z,3.70
2018-03-22T14:23:46.545Z,4.30
2018-03-22T14:26:16.036Z,4.10
2018-03-22T14:28:46.045Z,3.97
2018-03-22T14:31:18.291Z,3.97
2018-03-22T14:33:54.323Z,4.00
2018-03-22T14:36:27.516Z,4.30
2018-03-22T14:39:04.858Z,4.23
2018-03-22T14:41:35.506Z,4.03
2018-03-22T14:44:04.997Z,4.10
2018-03-22T14:46:36.580Z,4.10
2018-03-22T14:49:06.094Z,4.07
2018-03-22T14:51:35.576Z,4.17
2018-03-22T14:54:06.184Z,4.50
2018-03-22T14:56:38.034Z,4.17
2018-03-22T14:59:09.550Z,3.60
2018-03-22T15:01:39.185Z,4.03
2018-03-22T15:04:11.320Z,4.00
2018-03-22T15:06:41.060Z,4.30
2018-03-22T15:09:11.287Z,4.07
2018-03-22T15:11:40.792Z,3.73
2018-03-22T15:14:12.082Z,3.67
2018-03-22T15:16:47.783Z,3.43
2018-03-22T15:19:21.007Z,3.50
2018-03-22T15:21:51.580Z,4.17
2018-03-22T15:24:44.652Z,3.57
2018-03-22T15:27:14.146Z,4.20
2018-03-22T15:29:43.644Z,4.10
2018-03-22T15:32:13.993Z,4.30
2018-03-22T15:34:46.150Z,3.87
2018-03-22T15:37:32.212Z,4.80
2018-03-22T15:40:02.322Z,3.57
2018-03-22T15:42:36.598Z,4.30
2018-03-22T15:45:11.479Z,3.57
2018-03-22T15:47:43.687Z,4.27
2018-03-22T15:50:14.250Z,4.13
2018-03-22T15:52:44.803Z,3.70
2018-03-22T15:55:14.685Z,3.80
2018-03-22T15:58:07.922Z,4.27
2018-03-22T16:01:06.095Z,3.90
2018-03-22T16:04:00.517Z,4.07
2018-03-22T16:06:55.737Z,4.03
2018-03-22T16:09:50.176Z,4.93
2018-03-22T16:12:43.230Z,4.20
2018-03-22T16:15:35.393Z,4.30
2018-03-22T16:18:27.921Z,4.00
2018-03-22T16:21:24.393Z,4.57
2018-03-22T16:24:18.855Z,4.17
2018-03-22T16:27:14.261Z,4.33
2018-03-22T16:30:14.081Z,4.37
2018-03-22T16:33:07.758Z,4.20
2018-03-22T16:36:04.262Z,4.30
2018-03-22T16:39:00.317Z,4.80
2018-03-22T16:41:57.604Z,4.70
2018-03-22T16:44:52.230Z,4.87
2018-03-22T16:47:49.376Z,4.50
2018-03-22T16:50:44.974Z,4.20
2018-03-22T16:53:40.757Z,4.40
2018-03-22T16:56:33.285Z,4.60
2018-03-22T16:59:25.769Z,4.20
2018-03-22T17:02:21.370Z,4.40
2018-03-22T17:05:16.670Z,4.60
2018-03-22T17:08:10.132Z,4.53
2018-03-22T17:11:03.484Z,4.30
2018-03-22T17:13:57.891Z,4.90
2018-03-22T17:16:50.085Z,4.60
2018-03-22T17:19:42.405Z,4.30
2018-03-22T17:22:38.904Z,5.17
2018-03-22T17:25:32.253Z,4.50
2018-03-22T17:28:26.301Z,4.50
2018-03-22T17:31:24.522Z,4.50
2018-03-22T17:34:17.880Z,4.73
2018-03-22T17:37:11.203Z,5.00
2018-03-22T17:40:04.476Z,4.13
2018-03-22T17:42:56.665Z,4.30
2018-03-22T17:45:52.044Z,4.57
2018-03-22T17:48:47.942Z,4.40
2018-03-22T17:51:41.055Z,5.17
2018-03-22T17:54:34.133Z,4.73
2018-03-22T17:57:29.203Z,4.83
2018-03-22T18:00:21.969Z,4.50
2018-03-22T18:03:18.454Z,4.90
2018-03-22T18:06:16.857Z,4.80
2018-03-22T18:09:14.865Z,4.50
2018-03-22T18:12:15.711Z,4.10
2018-03-22T18:15:11.887Z,4.50
2018-03-22T18:18:05.883Z,4.20
2018-03-22T18:21:00.361Z,3.80
2018-03-22T18:24:02.155Z,4.03
2018-03-22T18:26:55.360Z,4.73
2018-03-22T18:29:59.615Z,4.47
2018-03-22T18:32:58.250Z,3.73
2018-03-22T18:39:03.663Z,3.67
2018-03-22T18:42:03.036Z,4.03
2018-03-22T18:45:08.210Z,3.80
2018-03-22T18:48:05.022Z,4.20
2018-03-22T18:51:00.527Z,3.83
2018-03-22T18:53:54.732Z,3.50
2018-03-22T18:56:54.477Z,4.10
2018-03-22T18:59:50.618Z,3.63
2018-03-22T19:05:59.587Z,3.60
2018-03-22T19:08:56.072Z,3.67
2018-03-22T19:11:53.338Z,4.43
2018-03-22T19:14:57.318Z,5.03
2018-03-22T19:17:52.585Z,4.10
2018-03-22T19:20:47.074Z,4.27
2018-03-22T19:23:41.968Z,4.83
2018-03-22T19:26:41.456Z,4.37
2018-03-22T19:29:36.902Z,4.63
2018-03-22T19:32:43.121Z,4.10
2018-03-22T19:35:39.120Z,4.37
2018-03-22T19:38:31.838Z,3.97
2018-03-22T19:41:24.489Z,4.10
2018-03-22T19:44:17.297Z,4.07
2018-03-22T19:47:10.375Z,4.23
2018-03-22T19:50:05.889Z,3.80
2018-03-22T19:53:03.620Z,4.03
2018-03-22T19:55:58.672Z,3.70
2018-03-22T19:58:51.289Z,3.80
2018-03-22T20:01:44.036Z,4.00
2018-03-22T20:04:36.161Z,4.03
2018-03-22T20:07:32.300Z,3.90
2018-03-22T20:10:26.790Z,3.47
2018-03-22T20:13:22.171Z,3.90
2018-03-22T20:16:18.712Z,4.37
2018-03-22T20:19:16.029Z,3.97
2018-03-22T20:22:17.882Z,3.90
2018-03-22T20:25:10.345Z,3.70
2018-03-22T20:28:04.200Z,4.37
2018-03-22T20:30:57.137Z,4.43
2018-03-22T20:43:07.011Z,4.10
2018-03-22T20:46:06.229Z,4.00
2018-03-22T20:49:10.542Z,3.90
2018-03-22T20:52:04.596Z,4.03
2018-03-22T20:54:56.790Z,3.80
2018-03-22T20:57:49.475Z,4.00
2018-03-22T21:00:45.220Z,3.90
2018-03-22T21:03:38.930Z,4.10
2018-03-22T21:06:31.037Z,3.93
2018-03-22T21:09:23.616Z,4.00
2018-03-22T21:12:15.552Z,3.67
2018-03-22T21:15:08.957Z,4.03
2018-03-22T21:18:01.505Z,4.07
2018-03-22T21:20:54.512Z,4.00
2018-03-22T21:23:48.192Z,4.03
2018-03-22T21:26:40.830Z,4.13
2018-03-22T21:29:33.674Z,4.13
2018-03-22T21:32:25.848Z,3.97
2018-03-22T21:35:18.232Z,4.17
2018-03-22T21:38:11.962Z,3.93
2018-03-22T21:41:07.690Z,3.90
2018-03-22T21:44:09.328Z,4.10
2018-03-22T21:47:03.296Z,4.40
2018-03-22T21:49:56.927Z,4.00
2018-03-22T21:52:54.969Z,3.83
2018-03-22T21:55:46.955Z,3.80
2018-03-22T21:58:39.545Z,4.30
2018-03-22T22:01:35.966Z,4.17
2018-03-22T22:04:30.385Z,4.20
2018-03-22T22:07:23.064Z,3.90
2018-03-22T22:10:15.606Z,4.33
2018-03-22T22:13:08.735Z,4.20
2018-03-22T22:16:01.091Z,4.27
2018-03-22T22:18:53.743Z,4.50
2018-03-22T22:21:46.920Z,4.30
2018-03-22T22:24:41.299Z,4.00
2018-03-22T22:27:36.388Z,4.23
2018-03-22T22:30:31.845Z,4.50
2018-03-22T22:33:36.055Z,4.30
2018-03-22T22:36:28.075Z,4.40
2018-03-22T22:39:21.206Z,3.90
2018-03-22T22:42:14.302Z,4.30
2018-03-22T22:45:06.818Z,4.90
2018-03-22T22:48:01.636Z,4.80
2018-03-22T22:50:54.246Z,4.70
2018-03-22T22:53:48.878Z,4.87
2018-03-22T22:56:43.524Z,4.07
2018-03-22T22:59:41.464Z,3.80
2018-03-22T23:02:33.666Z,4.30
2018-03-22T23:05:25.942Z,4.00
2018-03-22T23:08:19.454Z,4.53
2018-03-22T23:11:11.927Z,4.10
2018-03-22T23:14:05.438Z,5.03
2018-03-22T23:16:59.415Z,4.23
2018-03-22T23:19:54.249Z,4.10
2018-03-22T23:22:50.707Z,5.10
2018-03-22T23:25:44.166Z,5.00
2018-03-22T23:28:36.816Z,4.93
2018-03-22T23:31:32.140Z,5.33
2018-03-22T23:34:26.721Z,4.30
2018-03-22T23:37:18.803Z,4.67
2018-03-22T23:40:11.140Z,4.73
2018-03-22T23:43:03.560Z,5.17
2018-03-22T23:45:56.934Z,4.40
2018-03-22T23:48:49.758Z,5.07
2018-03-22T23:51:44.615Z,4.37
2018-03-22T23:54:38.969Z,5.50
2018-03-22T23:57:31.134Z,4.37
